Norris, Illinois
Current Conditions -  °F | °C
As of 1:54 AM on Friday 31 Oct 2014 (Local Time) from KPIA Reporting Station
Light Rain Light Rain  
Wind Chill: 46°   Ceiling: 8000
Heat Index: 46°   Visibility: 10mi
Dew Point: 40°   Wind: 3mph
Humidity: 79%   Direction: 300°WNW
Pressure: 30.09"   Gusts: NA
Location:  40.63°N, 90.03°W
Report Text: KPIA 310654Z 30003KT 10SM -RA FEW055 OVC080 08/04 A3009 RMK AO2 RAB16 SLP191 P0001 T00780044
Loading
Personal Weather Stations






























Interactive Weather Map
Tropical Storm Tracking
New forecast layout! Learn more

10-Day Weather Forecast

Advertisements
Track Severe Weather on mobile